createdAt,value
2018-12-21T00:02:15.137Z,74.50
2018-12-21T00:04:45.543Z,74.30
2018-12-21T00:07:16.024Z,74.30
2018-12-21T00:09:46.565Z,74.40
2018-12-21T00:12:17.808Z,74.30
2018-12-21T00:14:48.400Z,74.20
2018-12-21T00:17:18.870Z,74.00
2018-12-21T00:19:49.094Z,74.20
2018-12-21T00:22:19.425Z,74.00
2018-12-21T00:24:49.845Z,74.20
2018-12-21T00:27:20.520Z,74.00
2018-12-21T00:29:51.004Z,74.10
2018-12-21T00:32:27.146Z,74.20
2018-12-21T00:35:08.251Z,74.00
2018-12-21T00:37:45.521Z,74.10
2018-12-21T00:40:22.337Z,74.00
2018-12-21T00:44:00.096Z,73.90
2018-12-21T00:49:27.626Z,73.70
2018-12-21T00:51:58.110Z,73.70
2018-12-21T00:54:28.477Z,73.70
2018-12-21T00:56:58.782Z,73.60
2018-12-21T00:59:29.212Z,73.50
2018-12-21T01:01:59.755Z,73.40
2018-12-21T01:04:30.048Z,73.30
2018-12-21T01:07:00.301Z,73.20
2018-12-21T01:09:30.660Z,73.20
2018-12-21T01:12:00.985Z,72.60
2018-12-21T01:14:31.555Z,72.70
2018-12-21T01:17:01.899Z,72.40
2018-12-21T01:19:32.265Z,72.10
2018-12-21T01:22:02.603Z,72.00
2018-12-21T01:24:33.058Z,72.00
2018-12-21T01:27:03.385Z,71.60
2018-12-21T01:29:33.702Z,71.20
2018-12-21T01:32:04.053Z,71.20
2018-12-21T01:34:37.263Z,71.20
2018-12-21T01:37:07.689Z,71.20
2018-12-21T01:39:38.754Z,71.20
2018-12-21T01:42:09.356Z,71.20
2018-12-21T01:44:39.715Z,71.20
2018-12-21T01:47:10.755Z,71.20
2018-12-21T01:49:41.070Z,71.20
2018-12-21T01:52:11.341Z,71.20
2018-12-21T01:54:41.651Z,71.20
2018-12-21T01:57:12.086Z,71.20
2018-12-21T01:59:42.406Z,70.80
2018-12-21T02:02:12.844Z,71.00
2018-12-21T02:04:43.231Z,70.80
2018-12-21T02:07:13.633Z,70.60
2018-12-21T02:09:43.989Z,70.80
2018-12-21T02:12:14.411Z,70.80
2018-12-21T02:14:44.721Z,71.00
2018-12-21T02:17:15.162Z,71.00
2018-12-21T02:19:45.430Z,71.40
2018-12-21T02:22:15.691Z,71.40
2018-12-21T02:24:46.012Z,71.40
2018-12-21T02:27:16.288Z,71.00
2018-12-21T02:29:46.631Z,71.20
2018-12-21T02:32:16.982Z,71.40
2018-12-21T02:34:47.424Z,71.40
2018-12-21T02:37:17.860Z,71.40
2018-12-21T02:39:48.382Z,71.40
2018-12-21T02:42:18.903Z,71.40
2018-12-21T02:44:49.225Z,71.40
2018-12-21T02:47:19.758Z,71.20
2018-12-21T02:49:50.091Z,71.40
2018-12-21T02:52:20.409Z,71.40
2018-12-21T02:54:50.655Z,71.40
2018-12-21T02:57:21.119Z,72.10
2018-12-21T02:59:51.595Z,71.40
2018-12-21T03:02:21.970Z,71.10
2018-12-21T03:04:52.446Z,70.90
2018-12-21T03:07:22.689Z,70.90
2018-12-21T03:09:53.914Z,70.60
2018-12-21T03:12:24.284Z,70.50
2018-12-21T03:14:54.733Z,70.00
2018-12-21T03:17:25.076Z,69.90
2018-12-21T03:19:55.420Z,70.10
2018-12-21T03:22:25.765Z,69.60
2018-12-21T03:24:56.008Z,69.60
2018-12-21T03:27:26.184Z,69.50
2018-12-21T03:29:56.658Z,69.60
2018-12-21T03:32:26.953Z,69.40
2018-12-21T03:38:02.936Z,69.20
2018-12-21T03:40:33.418Z,69.10
2018-12-21T03:43:04.032Z,68.90
2018-12-21T03:45:34.763Z,68.80
2018-12-21T03:48:05.203Z,68.70
2018-12-21T03:50:35.623Z,68.30
2018-12-21T03:53:06.250Z,68.50
2018-12-21T03:55:36.763Z,68.40
2018-12-21T03:58:07.303Z,68.80
2018-12-21T04:00:37.678Z,68.70
2018-12-21T04:03:08.096Z,68.50
2018-12-21T04:05:38.517Z,68.50
2018-12-21T04:08:08.776Z,68.40
2018-12-21T04:10:39.165Z,68.50
2018-12-21T04:13:09.461Z,68.70
2018-12-21T04:15:39.832Z,69.00
2018-12-21T04:18:10.336Z,69.20
2018-12-21T04:20:40.664Z,69.20
2018-12-21T04:23:10.958Z,69.00
2018-12-21T04:25:41.249Z,68.90
2018-12-21T04:28:11.678Z,68.90
2018-12-21T04:30:41.962Z,68.80
2018-12-21T04:33:12.306Z,68.80
2018-12-21T04:35:42.700Z,68.80
2018-12-21T04:38:13.209Z,68.70
2018-12-21T04:40:43.557Z,68.60
2018-12-21T04:43:14.195Z,68.70
2018-12-21T04:45:44.557Z,68.50
2018-12-21T04:48:14.949Z,68.50
2018-12-21T04:50:45.271Z,68.40
2018-12-21T04:53:15.755Z,68.70
2018-12-21T04:55:46.267Z,68.50
2018-12-21T04:58:16.437Z,69.20
2018-12-21T05:00:46.858Z,68.50
2018-12-21T05:03:17.112Z,68.30
2018-12-21T05:05:47.209Z,68.30
2018-12-21T05:08:17.336Z,68.30
2018-12-21T05:10:47.507Z,68.30
2018-12-21T05:13:17.667Z,68.40
2018-12-21T05:15:48.688Z,68.10
2018-12-21T05:18:18.753Z,68.10
2018-12-21T05:20:48.924Z,67.50
2018-12-21T05:23:19.052Z,67.30
2018-12-21T05:25:49.140Z,67.10
2018-12-21T05:28:19.263Z,67.40
2018-12-21T05:30:49.402Z,67.10
2018-12-21T05:33:19.620Z,67.10
2018-12-21T05:35:49.743Z,67.00
2018-12-21T05:38:19.909Z,67.00
2018-12-21T05:40:50.682Z,66.80
2018-12-21T05:43:20.856Z,66.70
2018-12-21T05:45:51.133Z,67.30
2018-12-21T05:48:21.277Z,66.00
2018-12-21T05:50:51.486Z,65.80
2018-12-21T05:53:21.659Z,65.70
2018-12-21T05:55:51.854Z,65.40
2018-12-21T05:58:22.081Z,65.30
2018-12-21T06:00:52.504Z,65.20
2018-12-21T06:03:22.717Z,65.10
2018-12-21T06:05:52.807Z,65.00
2018-12-21T06:08:23.199Z,65.00
2018-12-21T06:10:53.390Z,65.00
2018-12-21T06:13:24.472Z,65.30
2018-12-21T06:15:54.652Z,65.20
2018-12-21T06:18:24.851Z,64.50
2018-12-21T06:20:55.030Z,64.60
2018-12-21T06:23:25.247Z,64.60
2018-12-21T06:25:55.393Z,64.90
2018-12-21T06:28:25.500Z,65.80
2018-12-21T06:30:55.658Z,66.10
2018-12-21T06:33:25.923Z,67.40
2018-12-21T06:35:56.062Z,67.50
2018-12-21T06:38:26.545Z,67.60
2018-12-21T06:40:56.705Z,68.40
2018-12-21T06:43:26.824Z,70.60
2018-12-21T06:45:58.359Z,70.20
2018-12-21T06:48:28.514Z,69.80
2018-12-21T06:50:58.885Z,70.90
2018-12-21T06:53:29.075Z,72.00
2018-12-21T06:55:59.321Z,72.40
2018-12-21T06:58:29.950Z,72.90
2018-12-21T07:01:00.787Z,75.10
2018-12-21T07:03:31.493Z,74.70
2018-12-21T07:06:01.776Z,74.30
2018-12-21T07:11:19.135Z,75.00
2018-12-21T07:13:49.344Z,75.60
2018-12-21T07:16:20.460Z,76.40
2018-12-21T07:18:50.679Z,77.20
2018-12-21T07:21:20.752Z,78.60
2018-12-21T07:23:50.918Z,79.40
2018-12-21T07:26:21.192Z,80.90
2018-12-21T07:28:51.364Z,81.30
2018-12-21T07:31:21.602Z,81.50
2018-12-21T07:33:51.858Z,82.90
2018-12-21T07:36:22.191Z,82.10
2018-12-21T07:38:52.772Z,82.90
2018-12-21T07:41:24.487Z,84.80
2018-12-21T07:43:56.914Z,84.50
2018-12-21T07:46:29.115Z,85.00
2018-12-21T07:48:59.849Z,85.30
2018-12-21T07:51:30.448Z,85.90
2018-12-21T07:54:00.579Z,84.20
2018-12-21T07:56:30.753Z,85.30
2018-12-21T07:59:01.223Z,85.30
2018-12-21T08:01:31.370Z,84.50
2018-12-21T08:04:01.712Z,84.30
2018-12-21T08:06:31.800Z,85.50
2018-12-21T08:09:02.005Z,84.80
2018-12-21T08:11:32.120Z,84.00
2018-12-21T08:14:02.357Z,83.30
2018-12-21T08:16:32.488Z,82.70
2018-12-21T08:19:02.619Z,83.20
2018-12-21T08:21:32.789Z,83.00
2018-12-21T08:24:02.995Z,84.50
2018-12-21T08:26:33.302Z,83.60
2018-12-21T08:29:03.405Z,83.50
2018-12-21T08:31:33.692Z,84.00
2018-12-21T08:34:03.802Z,83.90
2018-12-21T08:36:33.893Z,84.80
2018-12-21T08:39:05.781Z,84.50
2018-12-21T08:41:35.925Z,85.30
2018-12-21T08:44:06.258Z,85.10
2018-12-21T08:46:36.477Z,85.00
2018-12-21T08:49:06.629Z,85.00
2018-12-21T08:51:36.903Z,85.30
2018-12-21T08:54:07.044Z,85.80
2018-12-21T08:56:37.323Z,85.70
2018-12-21T08:59:07.442Z,86.10
2018-12-21T09:01:37.755Z,85.40
2018-12-21T09:04:09.856Z,85.90
2018-12-21T09:06:40.426Z,86.30
2018-12-21T09:09:10.660Z,86.70
2018-12-21T09:11:40.850Z,87.00
2018-12-21T09:14:11.183Z,87.20
2018-12-21T09:16:41.477Z,87.70
2018-12-21T09:19:11.788Z,87.70
2018-12-21T09:21:41.885Z,87.70
2018-12-21T09:24:12.070Z,87.80
2018-12-21T09:26:42.251Z,87.70
2018-12-21T09:29:13.350Z,87.20
2018-12-21T09:31:43.731Z,87.40
2018-12-21T09:34:13.825Z,86.30
2018-12-21T09:36:44.690Z,86.30
2018-12-21T09:39:15.372Z,85.70
2018-12-21T09:41:45.631Z,85.70
2018-12-21T09:44:15.872Z,85.00
2018-12-21T09:46:46.246Z,84.50
2018-12-21T09:49:16.452Z,83.60
2018-12-21T09:51:46.870Z,83.50
2018-12-21T09:54:17.449Z,83.70
2018-12-21T09:56:47.891Z,83.50
2018-12-21T09:59:18.683Z,83.80
2018-12-21T10:01:49.359Z,84.00
2018-12-21T10:04:19.559Z,84.20
2018-12-21T10:06:50.642Z,84.90
2018-12-21T10:11:57.612Z,84.00
2018-12-21T10:14:28.919Z,83.90
2018-12-21T10:16:59.068Z,84.10
2018-12-21T10:19:31.438Z,83.70
2018-12-21T10:22:01.941Z,83.40
2018-12-21T10:24:32.225Z,82.70
2018-12-21T10:27:02.427Z,83.10
2018-12-21T10:29:32.580Z,82.60
2018-12-21T10:32:02.889Z,82.80
2018-12-21T10:34:33.067Z,83.10
2018-12-21T10:37:03.193Z,83.50
2018-12-21T10:39:33.429Z,82.90
2018-12-21T10:42:03.562Z,82.00
2018-12-21T10:44:33.754Z,82.10
2018-12-21T10:47:03.982Z,82.20
2018-12-21T10:49:34.133Z,81.20
2018-12-21T10:52:04.357Z,80.60
2018-12-21T10:54:35.905Z,81.50
2018-12-21T10:57:06.447Z,81.60
2018-12-21T10:59:43.402Z,81.20
2018-12-21T11:02:09.902Z,82.20
2018-12-21T11:04:40.469Z,82.30
2018-12-21T11:07:11.211Z,83.00
2018-12-21T11:09:42.658Z,82.50
2018-12-21T11:12:12.959Z,83.40
2018-12-21T11:14:43.216Z,82.40
2018-12-21T11:17:13.605Z,82.40
2018-12-21T11:19:44.044Z,82.70
2018-12-21T11:22:14.660Z,82.50
2018-12-21T11:24:44.961Z,83.20
2018-12-21T11:27:15.338Z,82.50
2018-12-21T11:29:45.773Z,82.60
2018-12-21T11:32:16.442Z,83.30
2018-12-21T11:34:47.068Z,83.20
2018-12-21T11:37:17.577Z,83.80
2018-12-21T11:39:47.935Z,82.80
2018-12-21T11:42:18.317Z,83.80
2018-12-21T11:44:48.879Z,84.30
2018-12-21T11:47:19.244Z,84.50
2018-12-21T11:49:49.665Z,84.90
2018-12-21T11:52:20.473Z,84.80
2018-12-21T11:54:51.182Z,85.60
2018-12-21T11:57:22.116Z,85.60
2018-12-21T11:59:52.539Z,86.00
2018-12-21T12:02:23.318Z,85.40
2018-12-21T12:04:53.802Z,85.70
2018-12-21T12:07:24.108Z,85.50
2018-12-21T12:09:57.208Z,85.30
2018-12-21T12:12:31.612Z,85.30
2018-12-21T12:15:05.178Z,85.40
2018-12-21T12:17:35.497Z,85.30
2018-12-21T12:20:11.291Z,84.90
2018-12-21T12:22:48.534Z,85.30
2018-12-21T12:25:19.089Z,85.40
2018-12-21T12:27:50.136Z,85.30
2018-12-21T12:30:20.509Z,85.90
2018-12-21T12:32:50.838Z,86.10
2018-12-21T12:35:24.524Z,86.40
2018-12-21T12:37:57.906Z,85.00
2018-12-21T12:40:28.335Z,84.20
2018-12-21T12:42:58.741Z,84.10
2018-12-21T12:45:29.186Z,84.40
2018-12-21T12:48:01.648Z,84.00
2018-12-21T12:53:26.708Z,83.60
2018-12-21T12:55:57.134Z,83.70
2018-12-21T12:58:27.541Z,83.40
2018-12-21T13:01:03.078Z,83.80
2018-12-21T13:03:35.579Z,83.90
2018-12-21T13:06:10.912Z,83.90
2018-12-21T13:08:45.246Z,84.70
2018-12-21T13:11:15.587Z,84.40
2018-12-21T13:13:52.655Z,85.00
2018-12-21T13:16:24.744Z,85.00
2018-12-21T13:18:58.200Z,85.70
2018-12-21T13:21:31.760Z,85.90
2018-12-21T13:24:03.108Z,86.20
2018-12-21T13:26:33.809Z,87.00
2018-12-21T13:29:04.645Z,87.00
2018-12-21T13:31:35.138Z,87.60
2018-12-21T13:34:05.448Z,87.50
2018-12-21T13:36:36.703Z,87.00
2018-12-21T13:39:08.818Z,87.70
2018-12-21T13:41:39.425Z,87.20
2018-12-21T13:44:11.068Z,88.60
2018-12-21T13:46:41.464Z,88.80
2018-12-21T13:49:11.942Z,88.60
2018-12-21T13:51:42.413Z,88.60
2018-12-21T13:54:12.721Z,88.80
2018-12-21T13:56:43.181Z,89.40
2018-12-21T13:59:13.713Z,89.90
2018-12-21T14:01:44.309Z,90.00
2018-12-21T14:04:14.949Z,90.10
2018-12-21T14:09:40.770Z,90.10
2018-12-21T14:12:11.184Z,90.00
2018-12-21T14:14:41.816Z,90.00
2018-12-21T14:17:12.283Z,90.10
2018-12-21T14:19:42.877Z,90.10
2018-12-21T14:22:13.470Z,90.40
2018-12-21T14:24:43.862Z,90.70
2018-12-21T14:27:14.275Z,90.90
2018-12-21T14:29:44.687Z,91.30
2018-12-21T14:32:15.128Z,91.60
2018-12-21T14:34:45.693Z,91.70
2018-12-21T14:37:15.933Z,91.60
2018-12-21T14:39:46.412Z,91.50
2018-12-21T14:42:16.928Z,91.40
2018-12-21T14:44:48.167Z,91.30
2018-12-21T14:47:18.592Z,91.20
2018-12-21T14:49:49.163Z,91.10
2018-12-21T14:52:19.534Z,91.00
2018-12-21T14:54:49.815Z,90.70
2018-12-21T14:57:20.328Z,90.70
2018-12-21T14:59:50.660Z,90.70
2018-12-21T15:02:21.010Z,90.40
2018-12-21T15:04:51.539Z,90.30
2018-12-21T15:07:21.956Z,90.10
2018-12-21T15:09:52.388Z,90.10
2018-12-21T15:12:22.989Z,90.00
2018-12-21T15:14:53.355Z,90.00
2018-12-21T15:17:23.761Z,89.90
2018-12-21T15:19:54.159Z,90.30
2018-12-21T15:22:24.526Z,90.70
2018-12-21T15:24:54.888Z,90.70
2018-12-21T15:27:25.254Z,90.70
2018-12-21T15:29:55.864Z,90.70
2018-12-21T15:32:26.188Z,90.70
2018-12-21T15:34:56.675Z,90.70
2018-12-21T15:37:26.957Z,90.70
2018-12-21T15:39:57.294Z,90.70
2018-12-21T15:42:27.635Z,90.90
2018-12-21T15:44:58.114Z,90.70
2018-12-21T15:47:28.439Z,90.70
2018-12-21T15:49:58.792Z,90.70
2018-12-21T15:52:29.383Z,90.70
2018-12-21T15:54:59.916Z,90.30
2018-12-21T15:57:30.557Z,90.10
2018-12-21T16:00:00.998Z,90.00
2018-12-21T16:02:31.939Z,89.70
2018-12-21T16:05:02.664Z,89.90
2018-12-21T16:07:33.380Z,89.00
2018-12-21T16:10:04.642Z,88.80
2018-12-21T16:12:35.164Z,88.60
2018-12-21T16:15:05.855Z,88.30
2018-12-21T16:17:36.264Z,87.50
2018-12-21T16:20:11.496Z,86.70
2018-12-21T16:22:42.582Z,86.80
2018-12-21T16:25:13.330Z,86.70
2018-12-21T16:27:43.696Z,86.70
2018-12-21T16:30:14.288Z,86.40
2018-12-21T16:32:44.869Z,86.30
2018-12-21T16:35:15.453Z,86.20
2018-12-21T16:37:45.981Z,85.90
2018-12-21T16:40:16.499Z,85.50
2018-12-21T16:42:46.863Z,85.50
2018-12-21T16:45:17.486Z,85.50
2018-12-21T16:47:47.934Z,85.40
2018-12-21T16:50:18.837Z,84.90
2018-12-21T16:52:49.259Z,84.30
2018-12-21T16:55:21.821Z,83.50
2018-12-21T16:57:52.459Z,83.30
2018-12-21T17:00:22.925Z,83.20
2018-12-21T17:02:53.491Z,83.20
2018-12-21T17:05:24.368Z,83.20
2018-12-21T17:07:54.900Z,83.20
2018-12-21T17:10:25.600Z,83.20
2018-12-21T17:12:56.230Z,83.20
2018-12-21T17:15:26.568Z,83.20
2018-12-21T17:17:56.864Z,83.30
2018-12-21T17:20:27.424Z,83.20
2018-12-21T17:22:58.081Z,83.20
2018-12-21T17:25:28.770Z,83.20
2018-12-21T17:27:59.250Z,83.30
2018-12-21T17:30:30.004Z,82.80
2018-12-21T17:33:00.668Z,83.10
2018-12-21T17:35:31.037Z,83.00
2018-12-21T17:38:01.449Z,82.40
2018-12-21T17:40:31.844Z,82.40
2018-12-21T17:43:03.602Z,82.10
2018-12-21T17:45:34.118Z,82.20
2018-12-21T17:48:04.792Z,82.40
2018-12-21T17:50:38.246Z,82.00
2018-12-21T17:53:09.024Z,81.70
2018-12-21T17:55:42.622Z,81.60
2018-12-21T17:58:12.859Z,81.50
2018-12-21T18:00:43.164Z,81.50
2018-12-21T18:03:29.878Z,81.70
2018-12-21T18:06:00.352Z,81.50
2018-12-21T18:08:30.728Z,81.10
2018-12-21T18:11:01.340Z,80.80
2018-12-21T18:13:31.955Z,80.90
2018-12-21T18:16:02.285Z,81.20
2018-12-21T18:18:32.855Z,81.40
2018-12-21T18:21:03.662Z,81.30
2018-12-21T18:23:37.274Z,81.20
2018-12-21T18:26:07.939Z,80.90
2018-12-21T18:28:38.564Z,80.90
2018-12-21T18:31:17.765Z,80.60
2018-12-21T18:33:48.791Z,80.40
2018-12-21T18:36:19.375Z,80.60
2018-12-21T18:38:50.749Z,81.00
2018-12-21T18:41:21.239Z,81.00
2018-12-21T18:43:51.665Z,81.00
2018-12-21T18:46:22.115Z,81.20
2018-12-21T18:48:52.642Z,81.30
2018-12-21T18:51:23.041Z,81.60
2018-12-21T18:53:53.448Z,81.70
2018-12-21T18:56:27.709Z,81.60
2018-12-21T18:58:58.397Z,81.50
2018-12-21T19:01:29.487Z,81.70
2018-12-21T19:04:01.916Z,82.00
2018-12-21T19:06:32.631Z,81.90
2018-12-21T19:09:13.266Z,81.30
2018-12-21T19:11:43.762Z,81.40
2018-12-21T19:14:14.572Z,81.60
2018-12-21T19:16:44.950Z,81.10
2018-12-21T19:19:15.914Z,81.40
2018-12-21T19:21:47.721Z,81.50
2018-12-21T19:24:18.481Z,82.00
2018-12-21T19:26:55.682Z,82.20
2018-12-21T19:29:21.515Z,82.00
2018-12-21T19:31:51.950Z,81.90
2018-12-21T19:34:22.662Z,81.70
2018-12-21T19:36:53.010Z,81.60
2018-12-21T19:39:23.614Z,81.90
2018-12-21T19:41:54.069Z,82.10
2018-12-21T19:44:24.597Z,81.70
2018-12-21T19:46:55.042Z,81.20
2018-12-21T19:49:25.630Z,81.60
2018-12-21T19:51:56.112Z,82.00
2018-12-21T19:54:26.540Z,81.90
2018-12-21T19:57:09.494Z,81.60
2018-12-21T19:59:40.025Z,81.80
2018-12-21T20:02:10.762Z,81.80
2018-12-21T20:04:41.791Z,81.80
2018-12-21T20:07:12.301Z,81.50
2018-12-21T20:09:42.722Z,81.10
2018-12-21T20:12:13.363Z,80.60
2018-12-21T20:14:43.832Z,80.40
2018-12-21T20:17:14.352Z,80.50
2018-12-21T20:19:44.945Z,80.20
2018-12-21T20:22:15.519Z,80.50
2018-12-21T20:24:46.042Z,80.60
2018-12-21T20:27:16.676Z,80.60
2018-12-21T20:29:47.357Z,80.90
2018-12-21T20:32:17.827Z,80.90
2018-12-21T20:34:48.403Z,81.10
2018-12-21T20:37:18.785Z,81.20
2018-12-21T20:39:49.108Z,81.40
2018-12-21T20:42:19.439Z,81.00
2018-12-21T20:44:50.682Z,80.70
2018-12-21T20:47:21.078Z,80.70
2018-12-21T20:49:51.651Z,80.30
2018-12-21T20:52:23.034Z,80.20
2018-12-21T20:54:53.475Z,80.10
2018-12-21T20:57:27.416Z,80.20
2018-12-21T20:59:57.984Z,80.50
2018-12-21T21:02:28.399Z,80.80
2018-12-21T21:04:59.017Z,81.10
2018-12-21T21:07:29.743Z,81.10
2018-12-21T21:10:00.189Z,81.20
2018-12-21T21:12:37.285Z,81.20
2018-12-21T21:15:10.322Z,81.10
2018-12-21T21:17:41.472Z,81.20
2018-12-21T21:20:15.691Z,81.80
2018-12-21T21:22:46.268Z,82.00
2018-12-21T21:25:16.749Z,82.20
2018-12-21T21:27:48.146Z,82.40
2018-12-21T21:30:20.382Z,82.40
2018-12-21T21:32:51.359Z,82.50
2018-12-21T21:35:21.635Z,82.80
2018-12-21T21:37:52.122Z,83.30
2018-12-21T21:40:22.640Z,83.30
2018-12-21T21:42:57.502Z,83.30
2018-12-21T21:45:27.614Z,83.30
2018-12-21T21:47:58.764Z,83.40
2018-12-21T21:50:29.366Z,83.40
2018-12-21T21:52:59.908Z,83.40
2018-12-21T21:55:30.530Z,83.40
2018-12-21T21:58:01.590Z,83.30
2018-12-21T22:00:32.770Z,84.00
2018-12-21T22:03:05.431Z,84.30
2018-12-21T22:05:35.840Z,84.60
2018-12-21T22:08:06.802Z,85.30
2018-12-21T22:10:38.076Z,85.80
2018-12-21T22:13:18.379Z,86.20
2018-12-21T22:15:48.830Z,86.70
2018-12-21T22:18:19.324Z,86.60
2018-12-21T22:20:49.842Z,86.40
2018-12-21T22:23:20.822Z,86.30
2018-12-21T22:25:53.465Z,86.10
2018-12-21T22:28:23.972Z,86.20
2018-12-21T22:30:54.622Z,86.30
2018-12-21T22:33:25.178Z,86.00
2018-12-21T22:35:55.539Z,85.80
2018-12-21T22:38:26.154Z,86.00
2018-12-21T22:40:56.659Z,86.20
2018-12-21T22:43:27.492Z,86.90
2018-12-21T22:45:57.981Z,88.30
2018-12-21T22:48:28.414Z,88.00
2018-12-21T22:50:58.947Z,88.40
2018-12-21T22:53:29.588Z,89.00
2018-12-21T22:56:00.025Z,89.20
2018-12-21T22:58:30.320Z,89.10
2018-12-21T23:01:01.055Z,89.00
2018-12-21T23:03:31.794Z,88.80
2018-12-21T23:06:17.175Z,88.70
2018-12-21T23:12:45.707Z,89.10
2018-12-21T23:15:17.130Z,90.60
2018-12-21T23:17:47.555Z,91.00
2018-12-21T23:20:21.907Z,92.40
2018-12-21T23:22:52.717Z,92.90
2018-12-21T23:25:23.715Z,93.10
2018-12-21T23:28:04.909Z,93.30
2018-12-21T23:30:35.000Z,93.40
2018-12-21T23:33:06.057Z,93.50
2018-12-21T23:35:46.749Z,93.50
2018-12-21T23:38:48.895Z,93.30
2018-12-21T23:41:27.655Z,93.30
2018-12-21T23:43:58.925Z,93.20
2018-12-21T23:46:35.537Z,93.10
2018-12-21T23:49:08.298Z,93.10
2018-12-21T23:51:39.858Z,93.10
2018-12-21T23:54:10.442Z,93.30
2018-12-21T23:56:40.854Z,93.40
2018-12-21T23:59:12.297Z,93.50
